METARS
Date METAR Location Area
28/11/2014 LG1B 282230Z 15800KT 11/11 Q1025 Arsakeio Athens
28/11/2014 LGY7 282330Z 06803KT 15/13 Q1024 Aegina Attica
28/11/2014 LGH5 282330Z 02300KT 14/11 Q1024 Ampelokipoi Attica
28/11/2014 LGS5 282330Z 06800KT 14/12 Q1018 Anavissos Attica
28/11/2014 LGO0 282330Z 04500KT 13/11 Q1025 Ano Liosia Attica
28/11/2014 LGB9 282330Z 00001KT 15/12 Q1026 Athens - Gazi Attica
28/11/2014 LGL5 282330Z 13500KT 13/11 Q1024 Ekali Attica
28/11/2014 LGS3 282330Z 06800KT 15/12 Q1024 Faliro Attica
28/11/2014 LGM3 282330Z 06801KT 17/15 Q1025 Hydra Attica
20/11/2014 LGO2 200630Z 02305KT 09/06 Q1024 Imittos Attica
28/11/2014 LGT8 282330Z 00000KT 09/08 Q1025 Ippokratios Attica
27/11/2014 LG99 271230Z 06801KT 12/07 Q1021 Kantza Attica
28/11/2014 LG13 281900Z 00000KT 11/10 Q1026 Kifissia Attica
28/11/2014 LGD6 282330Z 29301KT 14/12 Q1023 Lavrio Attica
28/11/2014 LGK0 282330Z 13500KT 13/11 Q1025 Marousi Attica
29/11/2014 LG00 290010Z 00000KT 12/10 Q1022 Marousi (Anavrita) Attica
27/11/2014 LGR0 271030Z 33801KT 13/07 Q1021 Nea Smirni Attica
28/11/2014 LGM8 282330Z 31501KT 15/12 Q1026 Neos Kosmos Attica
28/11/2014 LGK3 282330Z 27011KT 08/08 Q1025 Parnitha 1230 EAA Attica
28/11/2014 LGT6 282330Z 00000KT 14/11 Q1025 Patissia Attica
28/11/2014 LGX9 282330Z 11300KT 12/11 Q1023 Penteli Attica
29/11/2014 LG67 290000Z 00000KT 125/109 Q10249 Penteli Attica
28/11/2014 LGU0 282330Z 04501KT 14/11 Q1025 Peristeri Attica
28/11/2014 LGY6 282330Z 29302KT 14/12 Q1024 Porto Rafti Attica
28/11/2014 LG96 282330Z 00000KT 13/12 Q1025 Psychico Attica
28/11/2014 LGZ0 282330Z 27001KT 13/12 Q1024 Rafina Attica
28/11/2014 LG2B 282230Z 00003KT 15/11 Q1024 SEF Attica
28/11/2014 LGG2 282330Z 31501KT 13/12 Q1024 Spata Attica
28/11/2014 LGS6 282330Z 11309KT 18/16 Q1023 Spetses Attica
28/11/2014 LG3B 282330Z 04500KT 12/11 Q1026 Tatoi Attica
28/11/2014 LGZ2 282330Z 04502KT 14/12 Q1024 Vari Attica
28/11/2014 LGR6 282330Z 00000KT 10/09 Q1025 Vilia Attica
29/11/2014 LG74 290000Z 00000KT 138/111 Q10237 Ymittos Attica
29/11/2014 LGG1 290000Z 00000G4320KT 127/111 Q113 Kalivia Thorikou Attica E
28/11/2014 LG45 282330Z 06801KT 13/12 Q1026 Markopoulo Attica E
29/11/2014 LG72 282300Z 00000KT 123/109 Q10227 Keratea Attica SE
28/11/2014 LGW4 282330Z 02304KT 10/07 Q1021 Ag. Ioannis Sfakion Crete
28/11/2014 LGJ9 282330Z 27003KT 15/12 Q1024 Aghios Nikolaos Crete
28/11/2014 LGT4 282330Z 15800KT 12/11 Q1023 Alikianos Crete
28/11/2014 LGB6 282330Z 18004KT 12/07 Q1021 Anogeia Crete
28/11/2014 LGZ6 282330Z 20303KT 13/10 Q1026 Askyfou Crete
28/11/2014 LG25 282330Z 00000KT 14/13 Q1022 Chania Crete
28/11/2014 LGN3 282330Z 20302KT 13/12 Q1024 Chania Center Crete
28/11/2014 LG61 282330Z 27001KT 16/13 Q1023 Cost - Irakleio Crete
28/11/2014 LGL9 282330Z 18001KT 17/12 Q1022 Falasarna Crete
28/11/2014 LG9A 282330Z 20303KT 16/12 Q1022 Finokalia - Lasithi Crete
28/11/2014 LGL1 282330Z 13505KT 15/12 Q1023 Fourfouras Crete
28/11/2014 LGD4 282330Z 00003KT 12/11 Q1024 Fragmapotamon - Rethymno Crete
28/11/2014 LG30 282330Z 13500KT 16/13 Q1024 Heraklion - Knossos Crete
28/11/2014 LG95 282330Z 33800KT 16/14 Q1024 Ierapetra Crete
28/11/2014 LGP0 282330Z 31504KT 17/14 Q1024 Lentas Hrakleion Crete
28/11/2014 LGD7 281930Z 22500KT 14/12 Q1024 Metaxochori - Heraklion Crete
28/11/2014 LGI2 282330Z 00000KT 12/11 Q1024 Mires Crete
28/11/2014 LG36 282330Z 06802KT 15/13 Q1023 Paleochora Crete
28/11/2014 LG8A 282330Z 00000KT 14/12 Q1018 Pirathi Heraklion Crete
28/11/2014 LG58 282330Z 13503KT 17/14 Q1022 Rethymno Crete
28/11/2014 LGT2 280630Z 13500KT 16/15 Q1021 Rethymno - Plakia Crete
28/11/2014 LGB4 282330Z 00000KT 09/06 Q1025 Samaria Crete
28/11/2014 LGY1 281330Z 00000KT 15/14 Q1023 Samaria Crete
28/11/2014 LGM2 282330Z 00000KT 15/12 Q1023 Sitia Crete
28/11/2014 LG75 282330Z 31501KT 13/12 Q1025 Spili - Rethymnon Crete
28/11/2014 LG50 282330Z 00000KT 06/05 Q1024 Tzermiado Lasithi Crete
28/11/2014 LG70 282330Z 11300KT 11/10 Q1023 Vrysses Crete
28/11/2014 LGT5 282330Z 06803KT 13/11 Q1024 Amorgos Cyclades
28/11/2014 LGN6 282330Z 02302KT 13/11 Q1025 Andros Cyclades
27/11/2014 LGS7 270830Z 33809KT 14/07 Q1021 Donoussa Cyclades
28/11/2014 LGI0 282330Z 02301KT 14/12 Q1025 Ios Cyclades
28/11/2014 LGP2 282330Z 18003KT 13/12 Q1028 Ioulida - Kea Cyclades
28/11/2014 LGP5 282330Z 00000KT 14/12 Q1025 Iraklia Cyclades
28/11/2014 LGE3 282330Z 15802KT 15/13 Q1026 Kea Cyclades
28/11/2014 LGX8 282330Z 00000KT 15/12 Q1025 Koufonissia Cyclades
28/11/2014 LGS0 282330Z 11301KT 15/14 Q1025 Milos Cyclades
28/11/2014 LG66 282330Z 00000KT 00/00 Q 0 Mykonos Cyclades
28/11/2014 LGM0 282330Z 13503KT 13/11 Q1025 Naxos Cyclades
26/11/2014 LGV3 261230Z 22500KT 07/05 Q1019 Naxos - Apiranthos Cyclades
28/11/2014 LGT0 282330Z 00000KT 00/00 Q 0 Naxos - Apollonas Cyclades
28/11/2014 LGU1 282330Z 00000KT 12/11 Q1025 Naxos - Damarionas Cyclades
28/11/2014 LGU2 282330Z 22503KT 12/10 Q1026 Naxos - Koronos Cyclades
28/11/2014 LGN7 282330Z 11300KT 11/10 Q1025 Naxos - Kynidaros Cyclades
28/11/2014 LGW1 282330Z 13500KT 13/11 Q1025 Naxos - Melanes Cyclades
09/11/2014 LGO7 091430Z 00017KT 26/20 Q1012 Naxos - Mikri Vigla Cyclades
28/11/2014 LG02 282330Z 00000KT 14/13 Q1025 Paros Cyclades
28/11/2014 LGX5 282330Z 11301KT 14/13 Q1023 Santorini Cyclades
28/11/2014 LGX7 282330Z 09002KT 14/12 Q1025 Schinoussa Cyclades
07/07/2014 LG07 070730Z 00000KT 255/97 Q10099 Tinos Cyclades
28/11/2014 LGB8 282330Z 06801KT 13/11 Q1025 Tinos NOA Cyclades
28/11/2014 LGAB 282330Z 20304KT 13/09 Q1023 Emponas - Rhodes Dodecanese
28/11/2014 LGG6 282330Z 00000KT 12/10 Q1025 Kalymnos Dodecanese
28/11/2014 LGAC 282330Z 00000KT 11/10 Q1023 Kattavia - Rhodes Dodecanese
28/11/2014 LGAA 282330Z 15802KT 16/12 Q1025 Lindos - Rhodes Dodecanese
28/11/2014 LG65 282330Z 13501KT 12/10 Q1025 Patmos Dodecanese
28/11/2014 LGS9 282330Z 27001KT 15/13 Q1025 Rhodes Dodecanese
28/11/2014 LGM5 282330Z 29300KT 15/13 Q1023 Kasos Dodecanisa
28/11/2014 LGX1 282330Z 24801KT 13/11 Q1025 Kos Dodekanissa
28/11/2014 LG4A 282330Z 00000KT 10/08 Q1025 Chios East Aegean
28/11/2014 LGT1 282330Z 00000KT 13/10 Q1024 Fournoi East Aegean
28/11/2014 LGI9 282330Z 20301KT 08/08 Q1024 Ikaria East Aegean
28/11/2014 LGI5 281030Z 06803KT 13/09 Q1022 Lemnos East Aegean
28/11/2014 LGI6 282330Z 15803KT 10/07 Q1024 Lesvos East Aegean
28/11/2014 LGJ3 282330Z 29303KT 09/08 Q1027 Lesvos - Thermi East Aegean
20/11/2014 LGZ7 201530Z 33807KT 18/07 Q1018 Mantamados East Aegean
28/11/2014 LGY5 282330Z 11303KT 08/06 Q1027 Molyvos East Aegean
28/11/2014 LGF1 282330Z 09003KT 09/08 Q1024 Samos East Aegean
28/11/2014 LGW7 282330Z 06803KT 13/12 Q1018 Akrotirio Paksimada Evia
28/11/2014 LGO3 282330Z 06803KT 13/11 Q1023 Chalkida Evia
28/11/2014 LGR5 282230Z 18003KT 12/11 Q1025 Kavodoro Evia
09/11/2014 LGY0 090700Z 11300KT 09/05 Q1034 Krieza Evia
28/11/2014 LGX0 282330Z 29300KT 10/09 Q1026 Kymi Evia
25/11/2014 LGT7 251000Z 27004KT 09/07 Q1011 Setta Evia
28/11/2014 LG81 282330Z 02300KT 11/10 Q1024 Steni Evia
28/11/2014 LGC4 282230Z 06802KT 13/12 Q1025 Styra Evia
28/11/2014 LGD3 282330Z 00001KT 13/12 Q1025 Zarakes Evia
28/11/2014 LGP6 282330Z 09001KT 13/12 Q1024 Agia Kyriaki Ioanninon Hepirus
28/11/2014 LGO1 282330Z 00000KT 09/08 Q1025 Aridaia Hepirus
28/11/2014 LGD2 282330Z 15802KT 16/14 Q1022 Arta - Kompoti Hepirus
28/11/2014 LG38 282330Z 06803KT 16/14 Q1023 Arta - Vlacherna Hepirus
25/11/2014 LGE4 251230Z 18002KT 10/02 Q1021 Aspraggeloi Hepirus
28/11/2014 LGI3 282330Z 06802KT 14/12 Q1023 Derviziana Hepirus
28/11/2014 LGP4 282330Z 09003KT 13/11 Q1022 Dodoni Hepirus
02/11/2014 LGL8 021430Z 02304KT 24/07 Q1015 Grammos Hepirus
28/11/2014 LG43 282330Z 06804KT 16/12 Q1020 Igoumenitsa Hepirus
28/11/2014 LG49 282330Z 00000KT 09/09 Q1022 Ioannina Anatoli Hepirus
28/11/2014 LGK1 282330Z 06803KT 16/12 Q1022 Kanali, Preveza Hepirus
28/11/2014 LGE0 282330Z 22504KT 12/10 Q1024 Katarraktis - Arta Hepirus
28/11/2014 LGO5 282330Z 11302KT 08/07 Q1022 Kerasovo Konitsa Hepirus
28/11/2014 LG3A 282330Z 04501KT 11/10 Q1023 Konitsa Hepirus
28/11/2014 LGO8 282330Z 11302KT 08/08 Q1022 Metsovo Hepirus
28/11/2014 LGK6 282330Z 29302KT 12/08 Q1024 Papigo Hepirus
28/11/2014 LGF6 282130Z 20307KT 13/11 Q1022 Paramythia Hepirus
28/11/2014 LGK9 282330Z 09006KT 19/14 Q1023 Parga Hepirus
28/11/2014 LGK7 282130Z 15801KT 12/11 Q1023 Pesta Hepirus
28/11/2014 LGY9 282230Z 31502KT 10/07 Q1077 Plikati Ioanninon Hepirus
28/11/2014 LGP1 282330Z 04501KT 11/10 Q1024 Pramanta Hepirus
28/11/2014 LGK2 282330Z 04501KT 11/10 Q1024 Theodoriana, Arta Hepirus
22/11/2014 LGD0 220530Z 00000KT 00/M03 Q1022 Tristeno - Ioannina Hepirus
28/11/2014 LGM4 282330Z 31501KT 12/11 Q1022 Tyria Hepirus
28/11/2014 LGR8 282330Z 00000KT 13/11 Q1024 Vourgareli Artas Hepirus
28/11/2014 LGN9 282230Z 13503KT 12/09 Q1024 Vovoussa Hepirus
28/11/2014 LGN0 282330Z 33800KT 12/11 Q1022 Zitsa Hepirus
28/11/2014 LGJ2 282330Z 11303KT 19/16 Q1021 Corfu - Gouvia Ionio
28/11/2014 LGB0 282330Z 13506KT 18/15 Q1022 Ithaki Ionio
28/11/2014 LGI7 282330Z 15810KT 19/15 Q1023 Lefkada Ionio
13/11/2014 LGN1 131430Z 24804KT RA 15/12 Q1007 Paxoi Ionio
28/11/2014 LGN4 282330Z 13501KT 19/17 Q1021 Zakynthos Ionio
28/11/2014 LGG9 282330Z 18000KT 07/06 Q1023 Amynteo Macedonia
28/11/2014 LG33 282330Z 00000KT 08/08 Q1024 Chalkidiki - Polygyros Macedonia
28/11/2014 LGJ1 280430Z 00000KT 09/08 Q1024 Chalkidiki - Stratoni Macedonia
28/11/2014 LGZ5 282330Z 33800KT 06/05 Q1024 Didymoteicho Macedonia
27/11/2014 LG55 272030Z 24800KT 08/07 Q1022 Dion Macedonia
28/11/2014 LGU8 282330Z 00000KT 08/07 Q1025 Doxato - Drama Macedonia
28/11/2014 LGH3 282350Z 20400KT 07/06 Q1025 Drama Macedonia
28/11/2014 LGH6 282330Z 00000KT 08/07 Q1024 Drama 2 Macedonia
28/11/2014 LGY3 282330Z 00000KT 08/07 Q1025 Eleutheroupoli Macedonia
27/11/2014 LGJ6 272050Z 15916G27KT 02/02 Q1009 Falakro Macedonia
28/11/2014 LG63 282330Z 00000KT 06/05 Q1026 Florina Macedonia
28/11/2014 LGZ8 282330Z 00000KT 09/08 Q1025 Fotolivos Macedonia
28/11/2014 LG73 282330Z 00000KT 10/09 Q1025 Giannitsa Macedonia
28/11/2014 LGF2 282330Z 00000KT 07/07 Q1025 Grevena Macedonia
28/11/2014 LGO4 282330Z 33801KT 07/07 Q1025 Hmathia - Rizomata Macedonia
28/11/2014 LG93 282230Z 27009KT 03/02 Q1025 Kaimaktsalan Macedonia
27/11/2014 LGN8 272050Z 19217G43KT 32/29 Q979 Kartakla - Falakro Macedonia
28/11/2014 LGO9 282330Z 29301KT 12/11 Q1024 Kassandreia (Xalkidiki) Macedonia
28/11/2014 LG27 282350Z 02102KT 11/08 Q1025 Kavala - Dexameni Macedonia
28/11/2014 LG42 282330Z 00000KT 09/09 Q1024 Kilkis Macedonia
28/11/2014 LGW8 282330Z 22500KT 08/07 Q1026 Kimisi Macedonia
28/11/2014 LGJ4 282330Z 00000KT 07/06 Q1026 Kozani - Ardassa Macedonia
28/11/2014 LGP3 282030Z 02300KT 04/04 Q1025 Lailias - Serres Macedonia
28/11/2014 LGZ9 282330Z 11303KT 07/07 Q1024 Mavropigi Macedonia
28/11/2014 LG40 282330Z 00000KT 09/07 Q1026 Naousa Macedonia
28/11/2014 LG4B 282330Z 00001KT 10/09 Q1024 Nea Peramos Macedonia
28/11/2014 LGZ4 282330Z 09000KT 12/11 Q1024 Neos Marmaras Macedonia
28/11/2014 LG48 282330Z 00001KT 07/05 Q1021 Nevrokopi Drama Macedonia
28/11/2014 LGS4 281230Z 18003KT 08/06 Q1022 Notio Pedio - Eordea Macedonia
28/11/2014 LGW0 282330Z 00000KT 08/07 Q1025 Paranesti Macedonia
28/11/2014 LG26 282330Z 06802KT 07/06 Q1022 Ptolemaida Macedonia
28/11/2014 LG87 282330Z 27001KT 06/05 Q1023 Seli Ski Center Macedonia
28/11/2014 LGW6 282330Z 22500KT 08/07 Q1027 Serres Macedonia
19/11/2014 LGD9 190730Z 00000KT -RA 13/12 Q1017 Serres - Kerkini Macedonia
29/11/2014 LG14 290000Z 00000KT 73/67 Q10273 Serres - Proti Macedonia
28/11/2014 LG5B 282330Z 15802KT 11/09 Q1024 Thasos Macedonia
07/11/2014 LGY8 071419Z 31505KT 9999 SCT036 10/00 Q1010 Thassos Macedonia
28/11/2014 LGR9 282330Z 29301KT 11/10 Q1025 Thessaloniki Macedonia
18/11/2014 LGF0 180730Z 00000KT 06/06 Q1019 Variko Macedonia
10/11/2014 LG82 100530Z 27001KT 05/02 Q1021 Vassilitsa Macedonia
14/11/2014 LGC2 141230Z 02307KT -RA 15/14 Q1010 Vatopedi - Athos Macedonia
28/11/2014 LGE9 282330Z 11300KT 07/06 Q1026 Vegoritida Macedonia
28/11/2014 LGE5 282330Z 00000KT 09/08 Q1011 Veroia Macedonia
28/11/2014 LG98 282330Z 24800KT 02/01 Q1025 Vlasti - Kozani Macedonia
29/11/2014 LGF5 290001Z 15900KT 06/06 Q1025 Vounochori - Kavala Macedonia
28/11/2014 LGU5 282330Z 06802KT 15/13 Q1024 Agioi Theodoroi Peloponissos
28/11/2014 LGU7 282330Z 09000KT 11/07 Q1023 Alagonia - Messinia Peloponissos
28/11/2014 LG52 282330Z 13504KT 16/12 Q1021 Amaliada Peloponissos
28/11/2014 LG77 282330Z 15801KT 12/11 Q1023 Andritsaina Peloponissos
28/11/2014 LGU6 282330Z 02300KT 14/12 Q1024 Arfara - Messinia Peloponissos
28/11/2014 LGT3 282330Z 31503KT 14/13 Q1025 Argos Peloponissos
28/11/2014 LGV0 282330Z 15802KT 14/11 Q1023 Derveni Peloponissos
28/11/2014 LGK4 280730Z 15801KT -RA 03/02 Q1021 Elati Peloponissos
28/11/2014 LGC3 282330Z 09002KT 12/10 Q1022 Foloi - Ilia Peloponissos
28/11/2014 LGX6 282330Z 04501KT 15/14 Q1025 Geraki Peloponissos
28/11/2014 LGB7 282330Z 00001KT 12/11 Q1022 Ilia - Vartholomio Peloponissos
28/11/2014 LG85 282330Z 13502KT 15/13 Q1023 Isthmos Peloponissos
28/11/2014 LG6A 282330Z 00002KT 16/13 Q1023 Kalamata Peloponissos
28/11/2014 LGV7 282330Z 13501KT 09/08 Q1025 Kalavryta Peloponissos
28/11/2014 LGZ3 282330Z 04504KT 15/12 Q1023 Kardamyli Peloponissos
28/11/2014 LGJ5 282330Z 09005KT 18/15 Q1022 Katakolo Peloponissos
28/11/2014 LGP7 282330Z 09000KT 08/08 Q1024 019 Kato Vlassia Peloponissos
27/11/2014 LGB2 272000Z 20301KT 27/23 Q1011 Katoachaia Peloponissos
28/11/2014 LGB5 282330Z 11302KT 17/14 Q1023 Kavomalias Peloponissos
28/11/2014 LGM7 282330Z 11303KT 16/14 Q1025 Kranidi Peloponissos
28/11/2014 LGV1 282330Z 09001KT 13/11 Q1022 Kyparissia Peloponissos
28/11/2014 LGW9 282330Z 00002KT 11/09 Q1023 Lagadia Peloponissos
28/11/2014 LG0A 282330Z 20301KT 10/09 Q1025 Lampia - Ilia Peloponissos
28/11/2014 LG92 282330Z 00000KT 14/12 Q1021 Lappa-Larissos-Achaia Peloponissos
07/11/2014 LG91 070630Z 00000KT 21/15 Q1012 Lousika-Olenias-Achaia Peloponissos
28/11/2014 LGV4 282330Z 22503KT 11/10 Q1026 Lykochia Peloponissos
28/11/2014 LGG5 282330Z 00000KT 10/10 Q1024 Megalopoli Peloponissos
28/11/2014 LGV2 282330Z 09003KT 14/12 Q1024 Messinia - Kopanaki Peloponissos
28/11/2014 LGF8 282330Z 31503KT 16/14 Q1023 Molaoi Peloponissos
28/11/2014 LG56 282330Z 24801KT 17/15 Q1023 Monemvasia Peloponissos
28/11/2014 LGE1 282330Z 00000KT 11/11 Q1023 Nemea Peloponissos
28/11/2014 LGD5 282330Z 00000KT 11/08 Q1022 Oleni - Ilia Peloponissos
28/11/2014 LGB3 282330Z 09001KT 16/13 Q1022 Olympia Peloponissos
28/11/2014 LGV6 282330Z 18003KT 06/06 Q1024 Panachaiko Oros Peloponissos
28/11/2014 LGZ1 282330Z 02305KT 15/12 Q1022 Patra Peloponissos
25/11/2014 LG79 252105Z 00000KT 97/45 Q10216 Patra - Agia Peloponissos
29/11/2014 LG71 282300Z 00000KT 136/116 Q10227 Patra - Drosia Peloponissos
28/11/2014 LG84 282330Z 06809KT 16/13 Q1023 Patra - Port Peloponissos
28/11/2014 LG59 282330Z 11303KT 16/13 Q1021 Pirgos Peloponissos
26/11/2014 LGH8 261230Z 06811G22KT 13/08 Q1019 Rio Peloponissos
28/11/2014 LGT9 282230Z 13501KT 15/11 Q1022 Romanos - Patra Peloponissos
28/11/2014 LGA0 282330Z 04500KT 13/12 Q1021 Sagaiika Peloponissos
28/11/2014 LGF7 282330Z 00000KT 13/11 Q1025 Sparti Peloponissos
28/11/2014 LGS2 282330Z 00000KT 10/08 Q1024 Stemnitsa Peloponissos
28/11/2014 LGR1 282330Z 22502KT 08/07 Q1022 Trikala Korinthias Peloponissos
28/11/2014 LG83 282330Z 00000KT 08/08 Q1025 Tripoli Peloponissos
28/11/2014 LGU9 282330Z 00000KT 07/06 Q1024 Vytina Peloponissos
28/11/2014 LG86 282330Z 00000KT 15/13 Q1022 Zaxaro Peloponissos
28/11/2014 LGN2 282330Z 29302KT 14/12 Q1026 Alonissos Sporades
28/11/2014 LGI1 282330Z 11306KT 15/12 Q1025 Skyros Sporades
28/11/2014 LGH9 282330Z 04505KT 15/12 Q1025 Agrinio Sterea Ellada
28/11/2014 LGC7 282330Z 33801KT 13/13 Q1023 Aitoliko Sterea Ellada
28/11/2014 LG29 282330Z 02301KT 08/07 Q1024 Amfiklia Sterea Ellada
29/11/2014 LGH1 282200Z 00000KT 92/83 Q10254 Amfiklia 2 Sterea Ellada
28/11/2014 LGG8 282330Z 00000KT 13/12 Q1027 Antikira Sterea Ellada
29/11/2014 LG97 290010Z 30001KT 08/08 Q1024 Arachova Sterea Ellada
28/11/2014 LGC5 282330Z 31504KT 09/08 Q1026 Arahova Sterea Ellada
28/11/2014 LGH0 282330Z 00000KT 12/10 Q1023 Avlida Sterea Ellada
26/11/2014 LGR2 262130Z 11302KT 07/05 Q1021 Dam of Mornos Sterea Ellada
28/11/2014 LGR3 282330Z 00000KT 10/09 Q1026 Diakopi of Lidoriki Sterea Ellada
28/11/2014 LGW5 282330Z 31500KT 07/07 Q1025 Domokos Sterea Ellada
14/11/2014 LG21 141323Z 24804KT 29/15 Q1014 Evia - Chalkida Sterea Ellada
28/11/2014 LGY4 282330Z 02305KT 14/12 Q1025 Galaxidi Sterea Ellada
29/11/2014 LGC8 290000Z 00000G2592KT 150/121 Q10226 Gavalou - Aitol/nia Sterea Ellada
28/11/2014 LGJ7 282330Z 00000KT 11/10 Q1026 Kaparelli Sterea Ellada
28/11/2014 LGC9 282330Z 24800KT 06/06 Q1025 Karpenisi Sterea Ellada
28/11/2014 LGP9 282330Z 15801KT 12/11 Q1022 Kleidi Viotias Sterea Ellada
28/11/2014 LGR4 282330Z 00000KT 09/09 Q1026 Koniakos of Lidoriki Sterea Ellada
28/11/2014 LG5A 282330Z 33801KT 11/11 Q1024 Kopaida Sterea Ellada
28/11/2014 LGV9 282230Z 00000KT 11/10 Q1024 Lamia Sterea Ellada
27/11/2014 LGJ8 271230Z 06800KT 09/07 Q1020 Lefkochori Sterea Ellada
28/11/2014 LGI8 282330Z 24801KT 11/10 Q1025 Livadeia Sterea Ellada
28/11/2014 LGE7 282330Z 24801KT 11/10 Q1023 Makrakomi Sterea Ellada
28/11/2014 LGA6 282330Z 22503KT -RA 07/07 Q1023 Mavrolithari - Vardousia Sterea Ellada
28/11/2014 LGK8 281930Z 27001KT 10/09 Q1022 Myriki Sterea Ellada
28/11/2014 LGG4 282330Z 11302KT 09/07 Q1024 Orini Nafpaktia Sterea Ellada
01/11/2014 LGA4 010800Z 09009KT -SN 02/M02 Q1009 Parnassos Sterea Ellada
27/11/2014 LGF9 271530Z 00000KT 03/02 Q1011 Parnassos1950 Sterea Ellada
28/11/2014 LGL0 282330Z 31500KT 10/09 Q1025 Polydroso Sterea Ellada
07/11/2014 LGR7 071230Z 04508KT 11/09 Q1025 Prasino - Viotia Sterea Ellada
28/11/2014 LG69 282330Z 00000KT 11/10 Q1024 Tanagra Sterea Ellada
29/11/2014 LG94 282330Z 00000KT 78/78 Q10253 Hortiatis Thes/niki
29/11/2014 LG15 290013Z 33800KT 13/04 Q1024 Kamara Thes/niki Thes/niki
28/11/2014 LGA5 282330Z 00000KT 10/09 Q1025 Lagadas Thes/niki
24/11/2014 LG11 240730Z 12901KT 10/06 Q1006 West Thes/niki Thes/niki
22/11/2014 LGV5 220630Z 13501KT 03/02 Q1023 Tsamantas Thesprotia
28/11/2014 LGL4 282330Z 27003KT 10/08 Q1025 Gardiki Thessalia
28/11/2014 LGW3 282130Z 06800KT 09/08 Q1024 Kalabaka Thessalia
28/11/2014 LG2A 282330Z 18001KT 10/09 Q1025 Karditsa Thessalia
28/11/2014 LGL6 282330Z 00000KT 11/09 Q1024 Larissa Thessalia
29/11/2014 LGU3 282310Z 00000KT 105/91 Q10230 Larissa Thessalia
28/11/2014 LGS8 282330Z 27001KT 09/09 Q1025 Larissa - Agia Thessalia
28/11/2014 LGL7 282230Z 24812KT 16/05 Q1014 Limni Plastira Thessalia
28/11/2014 LG6B 282330Z 31504KT 11/11 Q1023 Moni Paou Thessalia
26/11/2014 LGU4 260700Z 29304KT 04/M07 Q1013 Olympos Thessalia
29/11/2014 LG7A 290000Z 00000G4320KT 113/94 Q10248 Pedio Areos Volou Thessalia
28/11/2014 LGE2 282330Z 24802KT 09/08 Q1022 Pertouli Thessalia
28/11/2014 LGY2 282330Z 11302KT 10/09 Q1024 Portaria - Pelio Thessalia
28/11/2014 LG80 282330Z 00000KT 13/12 Q1025 Skopelos - Sporades Thessalia
28/11/2014 LG24 282330Z 00000KT 13/12 Q1024 Sporades - Skiathos Thessalia
28/11/2014 LG57 282330Z 00000KT 10/09 Q1025 Trikala Thessalia
28/11/2014 LG51 282330Z 09000KT 12/10 Q1024 Volos Thessalia
28/11/2014 LGG3 282330Z 20300KT 09/08 Q1027 Zagora EAA Thessalia
28/11/2014 LGD8 282330Z 27003KT 10/08 Q1024 Alexandroupolis Thraki
28/11/2014 LGM9 282330Z 00000KT 09/07 Q1023 Imeros Thraki
09/11/2014 LG35 091750Z 33604KT 23/15 Q1013 Komotini Thraki
28/11/2014 LGL2 282330Z 04500KT 04/03 Q1024 Metaxades - Evros Thraki
28/11/2014 LG31 282330Z 00000KT 05/03 Q1023 Orestiada Thraki
28/11/2014 LGC1 282330Z 13506KT 13/10 Q1025 Samothraki Thraki
28/11/2014 LGC6 282330Z 00000KT 09/08 Q1024 Xanthi Thraki
www.meteorologia.gr